createdAt,value
2019-02-04T00:05:53.160Z,41.58
2019-02-04T00:11:49.466Z,40.35
2019-02-04T00:17:44.946Z,40.03
2019-02-04T00:23:45.031Z,37.58
2019-02-04T00:29:43.905Z,35.43
2019-02-04T00:35:41.303Z,37.70
2019-02-04T00:41:38.201Z,34.83
2019-02-04T00:47:26.375Z,34.85
2019-02-04T00:53:35.809Z,29.10
2019-02-04T00:59:31.279Z,28.05
2019-02-04T01:05:42.915Z,28.27
2019-02-04T01:11:39.270Z,27.93
2019-02-04T01:17:38.231Z,23.62
2019-02-04T01:23:36.553Z,26.50
2019-02-04T01:29:57.361Z,27.48
2019-02-04T01:35:56.195Z,28.77
2019-02-04T01:41:46.380Z,28.07
2019-02-04T01:47:42.872Z,29.25
2019-02-04T01:53:40.690Z,29.02
2019-02-04T01:59:37.987Z,26.35
2019-02-04T02:05:46.816Z,25.70
2019-02-04T02:11:43.172Z,24.52
2019-02-04T02:18:04.153Z,27.27
2019-02-04T02:24:04.477Z,23.02
2019-02-04T02:30:04.074Z,23.67
2019-02-04T02:36:14.703Z,23.67
2019-02-04T02:41:59.117Z,25.80
2019-02-04T02:48:06.788Z,27.20
2019-02-04T02:54:03.716Z,26.80
2019-02-04T03:00:28.095Z,29.50
2019-02-04T03:09:03.442Z,27.45
2019-02-04T03:15:01.793Z,27.17
2019-02-04T03:20:47.266Z,27.13
2019-02-04T03:26:45.627Z,25.52
2019-02-04T03:32:46.301Z,29.18
2019-02-04T03:38:47.424Z,41.18
2019-02-04T03:44:56.865Z,32.73
2019-02-04T03:50:42.953Z,28.10
2019-02-04T03:56:40.497Z,28.38
2019-02-04T04:02:26.166Z,29.55
2019-02-04T04:05:01.495Z,28.87
2019-02-04T04:10:59.010Z,34.43
2019-02-04T04:20:41.800Z,28.20
2019-02-04T04:26:39.338Z,32.48
2019-02-04T04:33:00.109Z,28.85
2019-02-04T04:38:57.650Z,31.48
2019-02-04T04:45:08.283Z,26.15
2019-02-04T04:51:05.870Z,30.32
2019-02-04T04:57:03.450Z,29.92
2019-02-04T05:02:59.879Z,24.95
2019-02-04T05:08:55.411Z,28.47
2019-02-04T05:14:53.962Z,29.42
2019-02-04T05:20:51.543Z,33.60
2019-02-04T05:27:00.402Z,32.65
2019-02-04T05:32:57.527Z,30.68
2019-02-04T05:38:55.454Z,31.17
2019-02-04T05:44:52.777Z,36.75
2019-02-04T05:50:51.324Z,43.33
2019-02-04T05:56:37.711Z,42.53
2019-02-04T06:02:53.326Z,47.98
2019-02-04T06:08:49.674Z,46.98
2019-02-04T06:15:12.234Z,47.48
2019-02-04T06:20:58.234Z,50.52
2019-02-04T06:26:43.934Z,48.65
2019-02-04T06:32:39.485Z,56.40
2019-02-04T06:38:47.821Z,49.03
2019-02-04T06:44:42.371Z,47.17
2019-02-04T06:50:41.893Z,40.50
2019-02-04T06:56:40.508Z,41.80
2019-02-04T07:02:24.883Z,37.35
2019-02-04T07:08:19.634Z,34.13
2019-02-04T07:14:31.190Z,42.30
2019-02-04T07:20:28.858Z,53.55
2019-02-04T07:26:26.843Z,71.72
2019-02-04T07:32:25.650Z,77.42
2019-02-04T07:38:21.431Z,75.37
2019-02-04T07:44:30.869Z,61.25
2019-02-04T07:50:15.664Z,52.80
2019-02-04T07:56:23.973Z,50.12
2019-02-04T08:02:23.499Z,46.77
2019-02-04T08:08:43.918Z,46.90
2019-02-04T08:14:45.275Z,48.50
2019-02-04T08:26:58.346Z,42.88
2019-02-04T08:32:59.997Z,42.15
2019-02-04T08:39:11.400Z,38.15
2019-02-04T08:45:15.230Z,37.08
2019-02-04T08:51:10.697Z,38.98
2019-02-04T08:57:09.065Z,34.03
2019-02-04T09:03:05.394Z,36.75
2019-02-04T09:09:02.122Z,35.68
2019-02-04T09:14:59.881Z,39.92
2019-02-04T09:20:46.268Z,33.38
2019-02-04T09:26:33.421Z,35.08
2019-02-04T09:32:32.134Z,31.25
2019-02-04T09:38:41.654Z,29.85
2019-02-04T09:44:37.599Z,28.65
2019-02-04T09:50:46.130Z,29.57
2019-02-04T09:56:42.189Z,30.25
2019-02-04T10:02:38.545Z,27.70
2019-02-04T10:08:35.498Z,26.45
2019-02-04T10:14:32.123Z,30.75
2019-02-04T10:20:34.258Z,31.35
2019-02-04T10:26:27.149Z,34.95
2019-02-04T10:32:12.936Z,28.32
2019-02-04T10:38:32.534Z,29.30
2019-02-04T10:44:33.538Z,27.45
2019-02-04T10:50:46.226Z,30.00
2019-02-04T10:56:52.024Z,32.83
2019-02-04T11:03:07.906Z,32.98
2019-02-04T11:09:06.416Z,33.00
2019-02-04T11:15:04.997Z,33.28
2019-02-04T11:21:03.268Z,31.95
2019-02-04T11:31:11.508Z,30.77
2019-02-04T11:36:55.949Z,33.35
2019-02-04T11:43:02.481Z,44.60
2019-02-04T11:48:58.340Z,44.13
2019-02-04T11:54:55.683Z,39.60
2019-02-04T12:00:52.163Z,35.98
2019-02-04T12:06:59.809Z,35.40
2019-02-04T12:12:57.352Z,32.90
2019-02-04T12:18:54.885Z,29.63
2019-02-04T12:24:51.669Z,30.05
2019-02-04T12:31:01.108Z,35.50
2019-02-04T12:36:45.534Z,35.78
2019-02-04T12:42:45.303Z,30.80
2019-02-04T12:48:43.632Z,28.23
2019-02-04T12:54:30.065Z,27.53
2019-02-04T13:00:30.593Z,26.33
2019-02-04T13:06:47.367Z,20.63
2019-02-04T13:12:32.752Z,20.50
2019-02-04T13:18:42.681Z,19.70
2019-02-04T13:24:41.947Z,19.40
2019-02-04T13:30:30.412Z,16.90
2019-02-04T13:36:30.011Z,15.90
2019-02-04T13:42:26.731Z,14.70
2019-02-04T13:48:25.282Z,12.87
2019-02-04T13:54:36.735Z,13.43
2019-02-04T14:00:34.343Z,12.47
2019-02-04T14:06:47.556Z,14.00
2019-02-04T14:12:32.393Z,13.53
2019-02-04T14:18:44.068Z,15.17
2019-02-04T14:24:39.830Z,15.10
2019-02-04T14:30:51.269Z,15.93
2019-02-04T14:36:47.758Z,15.53
2019-02-04T14:42:45.377Z,15.88
2019-02-04T14:48:54.351Z,19.35
2019-02-04T14:55:55.407Z,19.25
2019-02-04T15:02:25.052Z,20.52
2019-02-04T15:08:43.468Z,23.22
2019-02-04T15:15:08.924Z,21.93
2019-02-04T15:21:37.432Z,23.85
2019-02-04T15:27:59.293Z,22.48
2019-02-04T15:34:03.499Z,18.32
2019-02-04T15:40:19.042Z,18.12
2019-02-04T15:46:40.311Z,19.12
2019-02-04T15:52:52.210Z,18.60
2019-02-04T15:58:50.537Z,17.73
2019-02-04T16:05:11.299Z,16.67
2019-02-04T16:11:09.857Z,19.25
2019-02-04T16:17:09.290Z,25.48
2019-02-04T16:23:06.989Z,22.45
2019-02-04T16:29:03.257Z,23.38
2019-02-04T16:34:49.949Z,25.20
2019-02-04T16:37:50.769Z,23.35
2019-02-04T16:43:49.544Z,23.60
2019-02-04T16:49:33.703Z,22.40
2019-02-04T16:55:33.236Z,27.32
2019-02-04T17:01:32.785Z,23.57
2019-02-04T17:07:17.407Z,25.70
2019-02-04T17:13:16.761Z,25.92
2019-02-04T17:19:15.343Z,26.17
2019-02-04T17:25:25.218Z,23.12
2019-02-04T17:31:27.798Z,26.70
2019-02-04T17:37:39.244Z,32.08
2019-02-04T17:43:23.644Z,29.02
2019-02-04T17:49:33.559Z,24.25
2019-02-04T17:55:32.511Z,22.10
2019-02-04T18:01:32.811Z,22.15
2019-02-04T18:07:29.976Z,23.25
2019-02-04T18:13:19.345Z,21.87
2019-02-04T18:19:40.403Z,18.17
2019-02-04T18:26:02.017Z,18.50
2019-02-04T18:32:00.531Z,22.75
2019-02-04T18:37:59.322Z,19.35
2019-02-04T18:43:43.772Z,19.07
2019-02-04T18:49:39.730Z,23.60
2019-02-04T18:55:47.811Z,21.82
2019-02-04T19:01:46.432Z,24.32
2019-02-04T19:07:57.293Z,26.50
2019-02-04T19:13:55.426Z,25.88
2019-02-04T19:20:07.323Z,24.32
2019-02-04T19:26:03.639Z,24.77
2019-02-04T19:32:02.942Z,24.25
2019-02-04T19:38:03.088Z,23.30
2019-02-04T19:44:14.437Z,22.70
2019-02-04T20:00:59.659Z,22.05
2019-02-04T20:06:55.185Z,22.55
2019-02-04T20:13:16.866Z,22.58
2019-02-04T20:19:14.555Z,18.30
2019-02-04T20:24:59.685Z,19.42
2019-02-04T20:31:09.343Z,18.48
2019-02-04T20:37:06.080Z,18.00
2019-02-04T20:46:53.524Z,17.12
2019-02-04T20:52:54.324Z,15.63
2019-02-04T20:59:06.212Z,17.65
2019-02-04T21:05:00.448Z,18.30
2019-02-04T21:11:09.113Z,16.27
2019-02-04T21:17:06.841Z,16.23
2019-02-04T21:23:05.155Z,17.25
2019-02-04T21:29:03.634Z,18.30
2019-02-04T21:35:01.218Z,18.35
2019-02-04T21:40:57.808Z,19.75
2019-02-04T21:46:44.455Z,17.62
2019-02-04T21:52:44.114Z,18.82
2019-02-04T21:58:28.611Z,19.42
2019-02-04T22:04:26.909Z,19.42
2019-02-04T22:10:37.638Z,18.20
2019-02-04T22:16:35.943Z,18.12
2019-02-04T22:22:32.774Z,19.02
2019-02-04T22:28:31.238Z,16.93
2019-02-04T22:34:30.848Z,17.60
2019-02-04T22:40:30.105Z,20.50
2019-02-04T22:46:17.637Z,21.30
2019-02-04T22:52:03.011Z,19.23
2019-02-04T22:57:58.533Z,17.92
2019-02-04T23:04:19.244Z,16.17
2019-02-04T23:10:20.511Z,18.65
2019-02-04T23:16:08.263Z,16.67
2019-02-04T23:22:05.862Z,18.35
2019-02-04T23:28:14.407Z,17.15
2019-02-04T23:34:10.116Z,16.90
2019-02-04T23:40:34.050Z,16.73
2019-02-04T23:46:19.491Z,16.40
2019-02-04T23:52:18.839Z,16.42
2019-02-04T23:58:16.317Z,15.60
